Layland, West Virginia
Current Conditions -  °F | °C
As of 11:51 PM on Friday 24 Oct 2014 (Local Time) from KBKW Reporting Station
Clear Clear  
Wind Chill: 36°   Ceiling: Unl
Heat Index: 39°   Visibility: 10mi
Dew Point: 35°   Wind: 5mph
Humidity: 86%   Direction: 210°SSW
Pressure: 30.08"   Gusts: NA
Location:  37.9°N, 80.99°W
Report Text: KBKW 250351Z AUTO 21004KT 10SM CLR 04/02 A3008 RMK AO2 SLP194 T00390017 TSNO
Loading
Personal Weather Stations






























Interactive Weather Map New forecast layout! Learn more

10-Day Weather Forecast

Advertisements
Track Severe Weather on mobile